sensor_id;sensor_type;location;lat;lon;timestamp;pressure;altitude;pressure_sealevel;temperature;humidity
41632;BME280;37452;51.938;4.624;2023-02-11T00:01:34;79157.72;;;-142.75;100.00
41632;BME280;37452;51.938;4.624;2023-02-11T00:04:01;79165.59;;;-142.75;100.00
41632;BME280;37452;51.938;4.624;2023-02-11T00:06:28;79167.56;;;-142.75;100.00
41632;BME280;37452;51.938;4.624;2023-02-11T00:08:55;79171.50;;;-142.75;100.00
41632;BME280;37452;51.938;4.624;2023-02-11T00:11:22;79169.53;;;-142.75;100.00
41632;BME280;37452;51.938;4.624;2023-02-11T00:13:49;79175.44;;;-142.75;100.00
41632;BME280;37452;51.938;4.624;2023-02-11T00:16:18;79159.69;;;-142.75;100.00
41632;BME280;37452;51.938;4.624;2023-02-11T00:18:45;79163.63;;;-142.75;100.00
41632;BME280;37452;51.938;4.624;2023-02-11T00:21:16;79173.47;;;-142.75;100.00
41632;BME280;37452;51.938;4.624;2023-02-11T00:23:42;79171.50;;;-142.75;100.00
41632;BME280;37452;51.938;4.624;2023-02-11T00:26:17;79159.69;;;-142.75;100.00
41632;BME280;37452;51.938;4.624;2023-02-11T00:28:43;79159.69;;;-142.75;100.00
41632;BME280;37452;51.938;4.624;2023-02-11T00:31:10;79165.59;;;-142.75;100.00
41632;BME280;37452;51.938;4.624;2023-02-11T00:33:35;79165.59;;;-142.75;100.00
41632;BME280;37452;51.938;4.624;2023-02-11T00:36:04;79149.81;;;-142.75;100.00
41632;BME280;37452;51.938;4.624;2023-02-11T00:38:30;79167.56;;;-142.75;100.00
41632;BME280;37452;51.938;4.624;2023-02-11T00:40:55;79143.91;;;-142.75;100.00
41632;BME280;37452;51.938;4.624;2023-02-11T00:43:20;79161.66;;;-142.75;100.00
41632;BME280;37452;51.938;4.624;2023-02-11T00:45:46;79143.91;;;-142.75;100.00
41632;BME280;37452;51.938;4.624;2023-02-11T00:48:11;79141.94;;;-142.75;100.00
41632;BME280;37452;51.938;4.624;2023-02-11T00:50:36;79157.72;;;-142.75;100.00
41632;BME280;37452;51.938;4.624;2023-02-11T00:53:01;79157.72;;;-142.75;100.00
41632;BME280;37452;51.938;4.624;2023-02-11T00:55:27;79149.81;;;-142.75;100.00
41632;BME280;37452;51.938;4.624;2023-02-11T00:57:52;79149.81;;;-142.75;100.00
41632;BME280;37452;51.938;4.624;2023-02-11T01:00:17;79145.88;;;-142.75;100.00
41632;BME280;37452;51.938;4.624;2023-02-11T01:02:42;79143.91;;;-142.75;100.00
41632;BME280;37452;51.938;4.624;2023-02-11T01:05:08;79143.91;;;-142.75;100.00
41632;BME280;37452;51.938;4.624;2023-02-11T01:07:33;79143.91;;;-142.75;100.00
41632;BME280;37452;51.938;4.624;2023-02-11T01:09:58;79138.00;;;-142.75;100.00
41632;BME280;37452;51.938;4.624;2023-02-11T01:12:24;79136.03;;;-142.75;100.00
41632;BME280;37452;51.938;4.624;2023-02-11T01:14:49;79141.94;;;-142.75;100.00
41632;BME280;37452;51.938;4.624;2023-02-11T01:17:14;79147.84;;;-142.75;100.00
41632;BME280;37452;51.938;4.624;2023-02-11T01:19:40;79130.13;;;-142.75;100.00
41632;BME280;37452;51.938;4.624;2023-02-11T01:22:05;79122.25;;;-142.75;100.00
41632;BME280;37452;51.938;4.624;2023-02-11T01:24:30;79130.13;;;-142.75;100.00
41632;BME280;37452;51.938;4.624;2023-02-11T01:26:56;79132.09;;;-142.75;100.00
41632;BME280;37452;51.938;4.624;2023-02-11T01:29:21;79120.28;;;-142.75;100.00
41632;BME280;37452;51.938;4.624;2023-02-11T01:31:47;79145.88;;;-142.75;100.00
41632;BME280;37452;51.938;4.624;2023-02-11T01:34:12;79132.09;;;-142.75;100.00
41632;BME280;37452;51.938;4.624;2023-02-11T01:36:38;79139.97;;;-142.75;100.00
41632;BME280;37452;51.938;4.624;2023-02-11T01:39:03;79122.25;;;-142.75;100.00
41632;BME280;37452;51.938;4.624;2023-02-11T01:41:28;79120.28;;;-142.75;100.00
41632;BME280;37452;51.938;4.624;2023-02-11T01:43:53;79130.13;;;-142.75;100.00
41632;BME280;37452;51.938;4.624;2023-02-11T01:46:29;79110.44;;;-142.75;100.00
41632;BME280;37452;51.938;4.624;2023-02-11T01:49:16;79102.56;;;-142.75;100.00
41632;BME280;37452;51.938;4.624;2023-02-11T01:51:46;79122.25;;;-142.75;100.00
41632;BME280;37452;51.938;4.624;2023-02-11T01:54:15;79124.22;;;-142.75;100.00
41632;BME280;37452;51.938;4.624;2023-02-11T01:57:00;79130.13;;;-142.75;100.00
41632;BME280;37452;51.938;4.624;2023-02-11T02:00:17;79139.97;;;-142.75;100.00
41632;BME280;37452;51.938;4.624;2023-02-11T02:03:05;79138.00;;;-142.75;100.00
41632;BME280;37452;51.938;4.624;2023-02-11T02:08:23;79153.75;;;-142.75;100.00
41632;BME280;37452;51.938;4.624;2023-02-11T02:10:54;79165.59;;;-142.75;100.00
41632;BME280;37452;51.938;4.624;2023-02-11T02:13:24;79161.66;;;-142.75;100.00
41632;BME280;37452;51.938;4.624;2023-02-11T02:15:53;79153.75;;;-142.75;100.00
41632;BME280;37452;51.938;4.624;2023-02-11T02:40:30;79189.22;;;-142.75;100.00
41632;BME280;37452;51.938;4.624;2023-02-11T02:42:58;79201.03;;;-142.75;100.00
41632;BME280;37452;51.938;4.624;2023-02-11T02:45:24;79193.16;;;-142.75;100.00
41632;BME280;37452;51.938;4.624;2023-02-11T02:47:50;79197.09;;;-142.75;100.00
41632;BME280;37452;51.938;4.624;2023-02-11T02:50:16;79206.94;;;-142.75;100.00
41632;BME280;37452;51.938;4.624;2023-02-11T02:53:17;79206.94;;;-142.75;100.00
41632;BME280;37452;51.938;4.624;2023-02-11T02:55:53;79208.91;;;-142.75;100.00
41632;BME280;37452;51.938;4.624;2023-02-11T03:03:47;79185.28;;;-142.75;100.00
41632;BME280;37452;51.938;4.624;2023-02-11T03:06:26;79197.09;;;-142.75;100.00
41632;BME280;37452;51.938;4.624;2023-02-11T03:09:17;79193.16;;;-142.75;100.00
41632;BME280;37452;51.938;4.624;2023-02-11T03:11:44;79195.13;;;-142.75;100.00
41632;BME280;37452;51.938;4.624;2023-02-11T03:14:10;79199.06;;;-142.75;100.00
41632;BME280;37452;51.938;4.624;2023-02-11T03:16:37;79204.97;;;-142.75;100.00
41632;BME280;37452;51.938;4.624;2023-02-11T03:19:25;79204.97;;;-142.75;100.00
41632;BME280;37452;51.938;4.624;2023-02-11T03:21:53;79216.78;;;-142.75;100.00
41632;BME280;37452;51.938;4.624;2023-02-11T03:24:25;79210.88;;;-142.75;100.00
41632;BME280;37452;51.938;4.624;2023-02-11T03:26:54;79204.97;;;-142.75;100.00
41632;BME280;37452;51.938;4.624;2023-02-11T03:35:19;79220.75;;;-142.75;100.00
41632;BME280;37452;51.938;4.624;2023-02-11T03:37:53;79210.88;;;-142.75;100.00
41632;BME280;37452;51.938;4.624;2023-02-11T03:40:24;79206.94;;;-142.75;100.00
41632;BME280;37452;51.938;4.624;2023-02-11T03:42:58;79197.09;;;-142.75;100.00
41632;BME280;37452;51.938;4.624;2023-02-11T03:45:26;79197.09;;;-142.75;100.00
41632;BME280;37452;51.938;4.624;2023-02-11T03:47:59;79193.16;;;-142.75;100.00
41632;BME280;37452;51.938;4.624;2023-02-11T03:50:26;79183.31;;;-142.75;100.00
41632;BME280;37452;51.938;4.624;2023-02-11T03:52:54;79189.22;;;-142.75;100.00
41632;BME280;37452;51.938;4.624;2023-02-11T03:55:22;79179.38;;;-142.75;100.00
41632;BME280;37452;51.938;4.624;2023-02-11T03:57:47;79199.06;;;-142.75;100.00
41632;BME280;37452;51.938;4.624;2023-02-11T04:00:13;79187.25;;;-142.75;100.00
41632;BME280;37452;51.938;4.624;2023-02-11T04:02:39;79183.31;;;-142.75;100.00
41632;BME280;37452;51.938;4.624;2023-02-11T04:05:06;79187.25;;;-142.75;100.00
41632;BME280;37452;51.938;4.624;2023-02-11T04:07:32;79201.03;;;-142.75;100.00
41632;BME280;37452;51.938;4.624;2023-02-11T04:09:57;79197.09;;;-142.75;100.00
41632;BME280;37452;51.938;4.624;2023-02-11T04:12:23;79199.06;;;-142.75;100.00
41632;BME280;37452;51.938;4.624;2023-02-11T04:14:48;79191.19;;;-142.75;100.00
41632;BME280;37452;51.938;4.624;2023-02-11T04:17:14;79204.97;;;-142.75;100.00
41632;BME280;37452;51.938;4.624;2023-02-11T04:19:39;79197.09;;;-142.75;100.00
41632;BME280;37452;51.938;4.624;2023-02-11T04:22:04;79199.06;;;-142.75;100.00
41632;BME280;37452;51.938;4.624;2023-02-11T04:24:29;79189.22;;;-142.75;100.00
41632;BME280;37452;51.938;4.624;2023-02-11T04:26:55;79195.13;;;-142.75;100.00
41632;BME280;37452;51.938;4.624;2023-02-11T04:29:20;79189.22;;;-142.75;100.00
41632;BME280;37452;51.938;4.624;2023-02-11T04:31:46;79191.19;;;-142.75;100.00
41632;BME280;37452;51.938;4.624;2023-02-11T04:34:11;79191.19;;;-142.75;100.00
41632;BME280;37452;51.938;4.624;2023-02-11T04:36:36;79197.09;;;-142.75;100.00
41632;BME280;37452;51.938;4.624;2023-02-11T04:39:02;79201.03;;;-142.75;100.00
41632;BME280;37452;51.938;4.624;2023-02-11T04:41:28;79193.16;;;-142.75;100.00
41632;BME280;37452;51.938;4.624;2023-02-11T04:43:53;79197.09;;;-142.75;100.00
41632;BME280;37452;51.938;4.624;2023-02-11T04:46:18;79173.47;;;-142.75;100.00
41632;BME280;37452;51.938;4.624;2023-02-11T04:48:44;79185.28;;;-142.75;100.00
41632;BME280;37452;51.938;4.624;2023-02-11T04:51:09;79193.16;;;-142.75;100.00
41632;BME280;37452;51.938;4.624;2023-02-11T04:53:34;79193.16;;;-142.75;100.00
41632;BME280;37452;51.938;4.624;2023-02-11T04:55:59;79185.28;;;-142.75;100.00
41632;BME280;37452;51.938;4.624;2023-02-11T04:58:25;79175.44;;;-142.75;100.00
41632;BME280;37452;51.938;4.624;2023-02-11T05:00:50;79171.50;;;-142.75;100.00
41632;BME280;37452;51.938;4.624;2023-02-11T05:03:15;79177.41;;;-142.75;100.00
41632;BME280;37452;51.938;4.624;2023-02-11T05:05:41;79161.66;;;-142.75;100.00
41632;BME280;37452;51.938;4.624;2023-02-11T05:08:08;79159.69;;;-142.75;100.00
41632;BME280;37452;51.938;4.624;2023-02-11T05:10:34;79165.59;;;-142.75;100.00
41632;BME280;37452;51.938;4.624;2023-02-11T05:12:59;79159.69;;;-142.75;100.00
41632;BME280;37452;51.938;4.624;2023-02-11T05:15:25;79175.44;;;-142.75;100.00
41632;BME280;37452;51.938;4.624;2023-02-11T05:17:50;79183.31;;;-142.75;100.00
41632;BME280;37452;51.938;4.624;2023-02-11T05:20:15;79177.41;;;-142.75;100.00
41632;BME280;37452;51.938;4.624;2023-02-11T05:22:41;79175.44;;;-142.75;100.00
41632;BME280;37452;51.938;4.624;2023-02-11T05:25:06;79193.16;;;-142.75;100.00
41632;BME280;37452;51.938;4.624;2023-02-11T05:27:31;79173.47;;;-142.75;100.00
41632;BME280;37452;51.938;4.624;2023-02-11T05:29:57;79187.25;;;-142.75;100.00
41632;BME280;37452;51.938;4.624;2023-02-11T05:32:22;79183.31;;;-142.75;100.00
41632;BME280;37452;51.938;4.624;2023-02-11T05:34:47;79187.25;;;-142.75;100.00
41632;BME280;37452;51.938;4.624;2023-02-11T05:37:13;79189.22;;;-142.75;100.00
41632;BME280;37452;51.938;4.624;2023-02-11T05:39:38;79189.22;;;-142.75;100.00
41632;BME280;37452;51.938;4.624;2023-02-11T05:42:03;79191.19;;;-142.75;100.00
41632;BME280;37452;51.938;4.624;2023-02-11T05:44:29;79203.00;;;-142.75;100.00
41632;BME280;37452;51.938;4.624;2023-02-11T05:46:54;79181.34;;;-142.75;100.00
41632;BME280;37452;51.938;4.624;2023-02-11T05:49:19;79181.34;;;-142.75;100.00
41632;BME280;37452;51.938;4.624;2023-02-11T05:51:44;79171.50;;;-142.75;100.00
41632;BME280;37452;51.938;4.624;2023-02-11T05:54:10;79177.41;;;-142.75;100.00
41632;BME280;37452;51.938;4.624;2023-02-11T05:56:35;79175.44;;;-142.75;100.00
41632;BME280;37452;51.938;4.624;2023-02-11T05:59:00;79187.25;;;-142.75;100.00
41632;BME280;37452;51.938;4.624;2023-02-11T06:01:25;79175.44;;;-142.75;100.00
41632;BME280;37452;51.938;4.624;2023-02-11T06:03:51;79189.22;;;-142.75;100.00
41632;BME280;37452;51.938;4.624;2023-02-11T06:06:16;79181.34;;;-142.75;100.00
41632;BME280;37452;51.938;4.624;2023-02-11T06:08:42;79185.28;;;-142.75;100.00
41632;BME280;37452;51.938;4.624;2023-02-11T06:11:07;79189.22;;;-142.75;100.00
41632;BME280;37452;51.938;4.624;2023-02-11T06:13:33;79183.31;;;-142.75;100.00
41632;BME280;37452;51.938;4.624;2023-02-11T06:15:58;79187.25;;;-142.75;100.00
41632;BME280;37452;51.938;4.624;2023-02-11T06:18:24;79183.31;;;-142.75;100.00
41632;BME280;37452;51.938;4.624;2023-02-11T06:20:49;79181.34;;;-142.75;100.00
41632;BME280;37452;51.938;4.624;2023-02-11T06:23:14;79185.28;;;-142.75;100.00
41632;BME280;37452;51.938;4.624;2023-02-11T06:25:40;79177.41;;;-142.75;100.00
41632;BME280;37452;51.938;4.624;2023-02-11T06:28:05;79167.56;;;-142.75;100.00
41632;BME280;37452;51.938;4.624;2023-02-11T06:30:30;79157.72;;;-142.75;100.00
41632;BME280;37452;51.938;4.624;2023-02-11T06:32:56;79155.72;;;-142.75;100.00
41632;BME280;37452;51.938;4.624;2023-02-11T06:35:21;79149.81;;;-142.75;100.00
41632;BME280;37452;51.938;4.624;2023-02-11T06:37:46;79149.81;;;-142.75;100.00
41632;BME280;37452;51.938;4.624;2023-02-11T06:40:13;79155.72;;;-142.75;100.00
41632;BME280;37452;51.938;4.624;2023-02-11T06:42:39;79141.94;;;-142.75;100.00
41632;BME280;37452;51.938;4.624;2023-02-11T06:45:05;79157.72;;;-142.75;100.00
41632;BME280;37452;51.938;4.624;2023-02-11T06:47:33;79159.69;;;-142.75;100.00
41632;BME280;37452;51.938;4.624;2023-02-11T06:49:58;79143.91;;;-142.75;100.00
41632;BME280;37452;51.938;4.624;2023-02-11T06:52:23;79151.78;;;-142.75;100.00
41632;BME280;37452;51.938;4.624;2023-02-11T06:54:48;79139.97;;;-142.75;100.00
41632;BME280;37452;51.938;4.624;2023-02-11T06:57:14;79147.84;;;-142.75;100.00
41632;BME280;37452;51.938;4.624;2023-02-11T06:59:39;79149.81;;;-142.75;100.00
41632;BME280;37452;51.938;4.624;2023-02-11T07:02:04;79149.81;;;-142.75;100.00
41632;BME280;37452;51.938;4.624;2023-02-11T07:04:30;79145.88;;;-142.75;100.00
41632;BME280;37452;51.938;4.624;2023-02-11T07:06:55;79161.66;;;-142.75;100.00
41632;BME280;37452;51.938;4.624;2023-02-11T07:09:20;79165.59;;;-142.75;100.00
41632;BME280;37452;51.938;4.624;2023-02-11T07:11:46;79155.72;;;-142.75;100.00
41632;BME280;37452;51.938;4.624;2023-02-11T07:14:11;79163.63;;;-142.75;100.00
41632;BME280;37452;51.938;4.624;2023-02-11T07:16:37;79175.44;;;-142.75;100.00
41632;BME280;37452;51.938;4.624;2023-02-11T07:19:03;79165.59;;;-142.75;100.00
41632;BME280;37452;51.938;4.624;2023-02-11T07:21:28;79173.47;;;-142.75;100.00
41632;BME280;37452;51.938;4.624;2023-02-11T07:23:53;79183.31;;;-142.75;100.00
41632;BME280;37452;51.938;4.624;2023-02-11T07:26:21;79173.47;;;-142.75;100.00
41632;BME280;37452;51.938;4.624;2023-02-11T07:28:47;79173.47;;;-142.75;100.00
41632;BME280;37452;51.938;4.624;2023-02-11T07:31:14;79167.56;;;-142.75;100.00
41632;BME280;37452;51.938;4.624;2023-02-11T07:33:40;79173.47;;;-142.75;100.00
41632;BME280;37452;51.938;4.624;2023-02-11T07:36:06;79181.34;;;-142.75;100.00
41632;BME280;37452;51.938;4.624;2023-02-11T07:38:34;79185.28;;;-142.75;100.00
41632;BME280;37452;51.938;4.624;2023-02-11T07:41:01;79171.50;;;-142.75;100.00
41632;BME280;37452;51.938;4.624;2023-02-11T07:43:26;79165.59;;;-142.75;100.00
41632;BME280;37452;51.938;4.624;2023-02-11T07:45:52;79171.50;;;-142.75;100.00
41632;BME280;37452;51.938;4.624;2023-02-11T07:48:17;79177.41;;;-142.75;100.00
41632;BME280;37452;51.938;4.624;2023-02-11T07:50:42;79161.66;;;-142.75;100.00
41632;BME280;37452;51.938;4.624;2023-02-11T07:53:07;79169.53;;;-142.75;100.00
41632;BME280;37452;51.938;4.624;2023-02-11T07:55:32;79169.53;;;-142.75;100.00
41632;BME280;37452;51.938;4.624;2023-02-11T07:57:58;79169.53;;;-142.75;100.00
41632;BME280;37452;51.938;4.624;2023-02-11T08:00:23;79145.88;;;-142.75;100.00
41632;BME280;37452;51.938;4.624;2023-02-11T08:02:48;79151.78;;;-142.75;100.00
41632;BME280;37452;51.938;4.624;2023-02-11T08:05:14;79155.72;;;-142.75;100.00
41632;BME280;37452;51.938;4.624;2023-02-11T08:07:39;79141.94;;;-142.75;100.00
41632;BME280;37452;51.938;4.624;2023-02-11T08:10:04;79118.31;;;-142.75;100.00
41632;BME280;37452;51.938;4.624;2023-02-11T08:12:30;79120.28;;;-142.75;100.00
41632;BME280;37452;51.938;4.624;2023-02-11T08:14:55;79106.50;;;-142.75;100.00
41632;BME280;37452;51.938;4.624;2023-02-11T08:17:20;79120.28;;;-142.75;100.00
41632;BME280;37452;51.938;4.624;2023-02-11T08:19:46;79102.56;;;-142.75;100.00
41632;BME280;37452;51.938;4.624;2023-02-11T08:22:11;79090.72;;;-142.75;100.00
41632;BME280;37452;51.938;4.624;2023-02-11T08:24:36;79088.75;;;-142.75;100.00
41632;BME280;37452;51.938;4.624;2023-02-11T08:27:01;79086.78;;;-142.75;100.00
41632;BME280;37452;51.938;4.624;2023-02-11T08:29:27;79086.78;;;-142.75;100.00
41632;BME280;37452;51.938;4.624;2023-02-11T08:31:52;79086.78;;;-142.75;100.00
41632;BME280;37452;51.938;4.624;2023-02-11T08:34:17;79080.88;;;-142.75;100.00
41632;BME280;37452;51.938;4.624;2023-02-11T08:36:44;79084.81;;;-142.75;100.00
41632;BME280;37452;51.938;4.624;2023-02-11T08:39:17;79078.91;;;-142.75;100.00
41632;BME280;37452;51.938;4.624;2023-02-11T08:41:43;79076.94;;;-142.75;100.00
41632;BME280;37452;51.938;4.624;2023-02-11T08:44:08;79074.97;;;-142.75;100.00
41632;BME280;37452;51.938;4.624;2023-02-11T08:46:34;79067.09;;;-142.75;100.00
41632;BME280;37452;51.938;4.624;2023-02-11T08:48:59;79078.91;;;-142.75;100.00
41632;BME280;37452;51.938;4.624;2023-02-11T08:51:25;79065.13;;;-142.75;100.00
41632;BME280;37452;51.938;4.624;2023-02-11T08:53:53;79071.03;;;-142.75;100.00
41632;BME280;37452;51.938;4.624;2023-02-11T08:56:20;79053.31;;;-142.75;100.00
41632;BME280;37452;51.938;4.624;2023-02-11T08:58:46;79053.31;;;-142.75;100.00
41632;BME280;37452;51.938;4.624;2023-02-11T09:01:17;79057.25;;;-142.75;100.00
41632;BME280;37452;51.938;4.624;2023-02-11T09:03:43;79049.38;;;-142.75;100.00
41632;BME280;37452;51.938;4.624;2023-02-11T09:06:09;79045.44;;;-142.75;100.00
41632;BME280;37452;51.938;4.624;2023-02-11T09:08:36;79071.03;;;-142.75;100.00
41632;BME280;37452;51.938;4.624;2023-02-11T09:11:01;79071.03;;;-142.75;100.00
41632;BME280;37452;51.938;4.624;2023-02-11T09:13:28;79078.91;;;-142.75;100.00
41632;BME280;37452;51.938;4.624;2023-02-11T09:15:53;79063.16;;;-142.75;100.00
41632;BME280;37452;51.938;4.624;2023-02-11T09:18:18;79067.09;;;-142.75;100.00
41632;BME280;37452;51.938;4.624;2023-02-11T09:20:43;79049.38;;;-142.75;100.00
41632;BME280;37452;51.938;4.624;2023-02-11T09:23:09;79049.38;;;-142.75;100.00
41632;BME280;37452;51.938;4.624;2023-02-11T09:25:34;79051.34;;;-142.75;100.00
41632;BME280;37452;51.938;4.624;2023-02-11T09:27:59;79047.41;;;-142.75;100.00
41632;BME280;37452;51.938;4.624;2023-02-11T09:30:26;79037.56;;;-142.75;100.00
41632;BME280;37452;51.938;4.624;2023-02-11T09:32:51;79027.69;;;-142.75;100.00
41632;BME280;37452;51.938;4.624;2023-02-11T09:35:16;79019.81;;;-142.75;100.00
41632;BME280;37452;51.938;4.624;2023-02-11T09:37:42;79009.97;;;-142.75;100.00
41632;BME280;37452;51.938;4.624;2023-02-11T09:40:07;79006.03;;;-142.75;100.00
41632;BME280;37452;51.938;4.624;2023-02-11T09:42:38;78984.38;;;-142.75;100.00
41632;BME280;37452;51.938;4.624;2023-02-11T09:45:11;78972.56;;;-142.75;100.00
41632;BME280;37452;51.938;4.624;2023-02-11T09:48:31;78970.59;;;-142.75;100.00
41632;BME280;37452;51.938;4.624;2023-02-11T09:50:53;78970.59;;;-142.75;100.00
41632;BME280;37452;51.938;4.624;2023-02-11T09:53:27;78964.69;;;-142.75;100.00
41632;BME280;37452;51.938;4.624;2023-02-11T09:55:55;78956.78;;;-142.75;100.00
41632;BME280;37452;51.938;4.624;2023-02-11T09:58:26;78948.91;;;-142.75;100.00
41632;BME280;37452;51.938;4.624;2023-02-11T10:04:10;78937.09;;;-142.75;100.00
41632;BME280;37452;51.938;4.624;2023-02-11T10:06:44;78935.13;;;-142.75;100.00
41632;BME280;37452;51.938;4.624;2023-02-11T10:22:31;78923.31;;;-142.75;100.00
41632;BME280;37452;51.938;4.624;2023-02-11T10:25:20;78925.28;;;-142.75;100.00
41632;BME280;37452;51.938;4.624;2023-02-11T10:27:46;78927.25;;;-142.75;100.00
41632;BME280;37452;51.938;4.624;2023-02-11T10:30:23;78941.03;;;-142.75;100.00
41632;BME280;37452;51.938;4.624;2023-02-11T10:35:30;78925.28;;;-142.75;100.00
41632;BME280;37452;51.938;4.624;2023-02-11T10:37:56;78913.47;;;-142.75;100.00
41632;BME280;37452;51.938;4.624;2023-02-11T10:40:22;78911.50;;;-142.75;100.00
41632;BME280;37452;51.938;4.624;2023-02-11T10:42:51;78903.63;;;-142.75;100.00
41632;BME280;37452;51.938;4.624;2023-02-11T10:45:22;78897.72;;;-142.75;100.00
41632;BME280;37452;51.938;4.624;2023-02-11T10:47:49;78891.78;;;-142.75;100.00
41632;BME280;37452;51.938;4.624;2023-02-11T10:50:30;78889.81;;;-142.75;100.00
41632;BME280;37452;51.938;4.624;2023-02-11T10:53:19;78879.97;;;-142.75;100.00
41632;BME280;37452;51.938;4.624;2023-02-11T10:55:54;78887.84;;;-142.75;100.00
41632;BME280;37452;51.938;4.624;2023-02-11T10:58:30;78889.81;;;-142.75;100.00
41632;BME280;37452;51.938;4.624;2023-02-11T11:00:57;78889.81;;;-142.75;100.00
41632;BME280;37452;51.938;4.624;2023-02-11T11:03:25;78887.84;;;-142.75;100.00
41632;BME280;37452;51.938;4.624;2023-02-11T11:05:55;78878.00;;;-142.75;100.00
41632;BME280;37452;51.938;4.624;2023-02-11T11:08:21;78876.03;;;-142.75;100.00
41632;BME280;37452;51.938;4.624;2023-02-11T11:10:47;78860.28;;;-142.75;100.00
41632;BME280;37452;51.938;4.624;2023-02-11T11:18:36;78836.66;;;-142.75;100.00
41632;BME280;37452;51.938;4.624;2023-02-11T11:21:03;78842.56;;;-142.75;100.00
41632;BME280;37452;51.938;4.624;2023-02-11T11:23:34;78868.16;;;-142.75;100.00
41632;BME280;37452;51.938;4.624;2023-02-11T11:26:21;78864.22;;;-142.75;100.00
41632;BME280;37452;51.938;4.624;2023-02-11T11:28:51;78840.59;;;-142.75;100.00
41632;BME280;37452;51.938;4.624;2023-02-11T11:31:23;78848.47;;;-142.75;100.00
41632;BME280;37452;51.938;4.624;2023-02-11T11:33:51;78852.41;;;-142.75;100.00
41632;BME280;37452;51.938;4.624;2023-02-11T11:36:24;78846.50;;;-142.75;100.00
41632;BME280;37452;51.938;4.624;2023-02-11T11:38:57;78852.41;;;-142.75;100.00
41632;BME280;37452;51.938;4.624;2023-02-11T11:41:30;78868.16;;;-142.75;100.00
41632;BME280;37452;51.938;4.624;2023-02-11T11:46:31;78876.03;;;-142.75;100.00
41632;BME280;37452;51.938;4.624;2023-02-11T11:51:35;78852.41;;;-142.75;100.00
41632;BME280;37452;51.938;4.624;2023-02-11T11:54:05;78864.22;;;-142.75;100.00
41632;BME280;37452;51.938;4.624;2023-02-11T11:56:35;78866.19;;;-142.75;100.00
41632;BME280;37452;51.938;4.624;2023-02-11T11:59:10;78878.00;;;-142.75;100.00
41632;BME280;37452;51.938;4.624;2023-02-11T12:07:43;78864.22;;;-142.75;100.00
41632;BME280;37452;51.938;4.624;2023-02-11T12:23:29;78881.94;;;-142.75;100.00
41632;BME280;37452;51.938;4.624;2023-02-11T12:26:17;78866.19;;;-142.75;100.00
41632;BME280;37452;51.938;4.624;2023-02-11T12:34:45;78864.22;;;-142.75;100.00
41632;BME280;37452;51.938;4.624;2023-02-11T12:37:26;78866.19;;;-142.75;100.00
41632;BME280;37452;51.938;4.624;2023-02-11T12:40:08;78866.19;;;-142.75;100.00
41632;BME280;37452;51.938;4.624;2023-02-11T12:43:00;78850.44;;;-142.75;100.00
41632;BME280;37452;51.938;4.624;2023-02-11T12:56:27;78838.63;;;-142.75;100.00
41632;BME280;37452;51.938;4.624;2023-02-11T12:58:55;78830.75;;;-142.75;100.00
41632;BME280;37452;51.938;4.624;2023-02-11T13:01:26;78809.06;;;-142.75;100.00
41632;BME280;37452;51.938;4.624;2023-02-11T13:03:57;78811.03;;;-142.75;100.00
41632;BME280;37452;51.938;4.624;2023-02-11T13:06:54;78811.03;;;-142.75;100.00
41632;BME280;37452;51.938;4.624;2023-02-11T13:09:33;78791.34;;;-142.75;100.00
41632;BME280;37452;51.938;4.624;2023-02-11T13:11:59;78799.22;;;-142.75;100.00
41632;BME280;37452;51.938;4.624;2023-02-11T13:14:47;78801.19;;;-142.75;100.00
41632;BME280;37452;51.938;4.624;2023-02-11T13:17:23;78789.38;;;-142.75;100.00
41632;BME280;37452;51.938;4.624;2023-02-11T13:19:55;78799.22;;;-142.75;100.00
41632;BME280;37452;51.938;4.624;2023-02-11T13:22:40;78775.59;;;-142.75;100.00
41632;BME280;37452;51.938;4.624;2023-02-11T13:25:33;78763.78;;;-142.75;100.00
41632;BME280;37452;51.938;4.624;2023-02-11T13:28:24;78783.47;;;-142.75;100.00
41632;BME280;37452;51.938;4.624;2023-02-11T13:30:53;78799.22;;;-142.75;100.00
41632;BME280;37452;51.938;4.624;2023-02-11T13:33:33;78791.34;;;-142.75;100.00
41632;BME280;37452;51.938;4.624;2023-02-11T13:38:25;78791.34;;;-142.75;100.00
41632;BME280;37452;51.938;4.624;2023-02-11T13:43:30;78838.63;;;-142.75;100.00
41632;BME280;37452;51.938;4.624;2023-02-11T13:46:02;78836.66;;;-142.75;100.00
41632;BME280;37452;51.938;4.624;2023-02-11T13:48:30;78820.88;;;-142.75;100.00
41632;BME280;37452;51.938;4.624;2023-02-11T13:51:02;78811.03;;;-142.75;100.00
41632;BME280;37452;51.938;4.624;2023-02-11T13:53:29;78820.88;;;-142.75;100.00
41632;BME280;37452;51.938;4.624;2023-02-11T13:56:11;78814.97;;;-142.75;100.00
41632;BME280;37452;51.938;4.624;2023-02-11T13:58:46;78820.88;;;-142.75;100.00
41632;BME280;37452;51.938;4.624;2023-02-11T14:02:00;78822.88;;;-142.75;100.00
41632;BME280;37452;51.938;4.624;2023-02-11T14:08:14;78814.97;;;-142.75;100.00
41632;BME280;37452;51.938;4.624;2023-02-11T14:11:01;78811.03;;;-142.75;100.00
41632;BME280;37452;51.938;4.624;2023-02-11T14:13:32;78818.91;;;-142.75;100.00
41632;BME280;37452;51.938;4.624;2023-02-11T14:16:10;78828.78;;;-142.75;100.00
41632;BME280;37452;51.938;4.624;2023-02-11T14:21:15;78850.44;;;-142.75;100.00
41632;BME280;37452;51.938;4.624;2023-02-11T14:23:41;78850.44;;;-142.75;100.00
41632;BME280;37452;51.938;4.624;2023-02-11T14:26:22;78838.63;;;-142.75;100.00
41632;BME280;37452;51.938;4.624;2023-02-11T14:28:55;78850.44;;;-142.75;100.00
41632;BME280;37452;51.938;4.624;2023-02-11T14:31:26;78850.44;;;-142.75;100.00
41632;BME280;37452;51.938;4.624;2023-02-11T14:36:52;78846.50;;;-142.75;100.00